createdAt,value
2022-12-27T00:01:29.685Z,101255.14
2022-12-27T00:03:58.501Z,101251.29
2022-12-27T00:06:28.819Z,101254.11
2022-12-27T00:08:58.770Z,101251.75
2022-12-27T00:11:31.565Z,101250.90
2022-12-27T00:14:05.350Z,101245.80
2022-12-27T00:16:34.800Z,101247.19
2022-12-27T00:19:04.447Z,101245.39
2022-12-27T00:21:34.061Z,101243.09
2022-12-27T00:24:03.700Z,101248.20
2022-12-27T00:26:35.848Z,101246.51
2022-12-27T00:29:04.778Z,101241.40
2022-12-27T00:31:34.369Z,101239.61
2022-12-27T00:34:06.205Z,101241.41
2022-12-27T00:36:35.671Z,101244.26
2022-12-27T00:39:05.459Z,101250.27
2022-12-27T00:41:34.365Z,101247.80
2022-12-27T00:44:03.316Z,101251.35
2022-12-27T00:46:35.270Z,101258.09
2022-12-27T00:49:04.222Z,101250.98
2022-12-27T00:51:33.009Z,101245.52
2022-12-27T00:54:01.947Z,101239.23
2022-12-27T00:56:31.573Z,101238.23
2022-12-27T00:59:03.652Z,101236.27
2022-12-27T01:01:36.409Z,101237.20
2022-12-27T01:04:05.810Z,101234.16
2022-12-27T01:06:36.027Z,101235.09
2022-12-27T01:09:07.274Z,101235.14
2022-12-27T01:11:36.039Z,101241.49
2022-12-27T01:14:05.661Z,101244.64
2022-12-27T01:16:35.112Z,101243.73
2022-12-27T01:19:03.991Z,101245.54
2022-12-27T01:21:32.703Z,101248.34
2022-12-27T01:24:01.746Z,101237.40
2022-12-27T01:26:30.530Z,101244.80
2022-12-27T01:28:59.365Z,101239.71
2022-12-27T01:31:28.585Z,101234.36
2022-12-27T01:33:59.559Z,101230.55
2022-12-27T01:36:31.924Z,101229.06
2022-12-27T01:39:03.999Z,101224.50
2022-12-27T01:41:54.917Z,101220.92
2022-12-27T01:44:39.378Z,101215.45
2022-12-27T01:47:32.483Z,101220.17
2022-12-27T01:50:29.320Z,101217.25
2022-12-27T01:53:33.070Z,101215.67
2022-12-27T01:56:06.687Z,101215.20
2022-12-27T01:59:03.137Z,101211.71
2022-12-27T02:01:38.913Z,101210.42
2022-12-27T02:04:12.809Z,101205.23
2022-12-27T02:06:41.953Z,101203.27
2022-12-27T02:09:28.686Z,101201.28
2022-12-27T02:11:59.946Z,101192.64
2022-12-27T02:14:38.251Z,101185.44
2022-12-27T02:17:14.532Z,101178.81
2022-12-27T02:19:43.292Z,101172.31
2022-12-27T02:22:57.191Z,101168.83
2022-12-27T02:26:09.197Z,101166.95
2022-12-27T02:28:56.815Z,101169.73
2022-12-27T02:31:36.085Z,101166.48
2022-12-27T02:34:14.369Z,101165.70
2022-12-27T02:36:45.523Z,101168.48
2022-12-27T02:39:16.380Z,101170.73
2022-12-27T02:42:04.719Z,101169.75
2022-12-27T02:44:52.236Z,101165.34
2022-12-27T02:47:43.330Z,101162.20
2022-12-27T02:50:33.437Z,101158.85
2022-12-27T02:53:22.382Z,101153.42
2022-12-27T02:57:10.261Z,101145.73
2022-12-27T03:00:36.191Z,101141.94
2022-12-27T03:03:32.064Z,101133.63
2022-12-27T03:06:53.074Z,101128.97
2022-12-27T03:10:27.036Z,101128.23
2022-12-27T03:13:31.927Z,101130.76
2022-12-27T03:16:38.151Z,101125.67
2022-12-27T03:19:38.267Z,101121.73
2022-12-27T03:22:56.476Z,101120.83
2022-12-27T03:25:28.769Z,101108.77
2022-12-27T03:28:25.445Z,101108.67
2022-12-27T03:31:43.604Z,101110.79
2022-12-27T03:34:32.665Z,101102.58
2022-12-27T03:37:31.991Z,101104.93
2022-12-27T03:40:30.563Z,101097.80
2022-12-27T03:43:15.391Z,101095.90
2022-12-27T03:46:20.914Z,101101.28
2022-12-27T03:49:33.489Z,101099.42
2022-12-27T03:52:08.398Z,101106.13
2022-12-27T03:54:41.274Z,101105.98
2022-12-27T03:57:20.102Z,101098.88
2022-12-27T03:59:49.300Z,101100.91
2022-12-27T04:02:19.031Z,101104.18
2022-12-27T04:04:48.742Z,101102.29
2022-12-27T04:07:17.613Z,101102.39
2022-12-27T04:10:05.118Z,101108.36
2022-12-27T04:12:52.391Z,101112.14
2022-12-27T04:15:39.702Z,101111.63
2022-12-27T04:18:26.591Z,101109.73
2022-12-27T04:21:13.947Z,101115.57
2022-12-27T04:24:00.819Z,101117.94
2022-12-27T04:26:48.161Z,101114.75
2022-12-27T04:29:35.138Z,101115.52
2022-12-27T04:32:23.128Z,101119.24
2022-12-27T04:34:51.863Z,101121.91
2022-12-27T04:37:20.859Z,101126.75
2022-12-27T04:40:08.281Z,101130.42
2022-12-27T04:42:55.846Z,101133.48
2022-12-27T04:45:43.083Z,101133.06
2022-12-27T04:48:34.883Z,101133.35
2022-12-27T04:51:21.701Z,101135.23
2022-12-27T04:54:08.778Z,101131.99
2022-12-27T04:56:37.475Z,101122.73
2022-12-27T04:59:24.434Z,101119.00
2022-12-27T05:02:05.612Z,101117.73
2022-12-27T05:04:38.332Z,101105.88
2022-12-27T05:07:30.031Z,101103.84
2022-12-27T05:10:20.029Z,101102.86
2022-12-27T05:13:07.422Z,101101.89
2022-12-27T05:15:36.302Z,101103.02
2022-12-27T05:18:05.323Z,101102.61
2022-12-27T05:20:35.451Z,101103.48
2022-12-27T05:23:22.656Z,101100.66
2022-12-27T05:25:51.314Z,101098.34
2022-12-27T05:28:20.018Z,101099.43
2022-12-27T05:30:48.856Z,101099.89
2022-12-27T05:33:18.098Z,101096.34
2022-12-27T05:35:46.920Z,101093.45
2022-12-27T05:38:15.700Z,101097.07
2022-12-27T05:40:44.522Z,101097.52
2022-12-27T05:43:13.274Z,101096.81
2022-12-27T05:45:42.180Z,101092.45
2022-12-27T05:48:10.988Z,101090.79
2022-12-27T05:50:39.680Z,101085.67
2022-12-27T05:53:15.167Z,101085.50
2022-12-27T05:55:44.005Z,101090.15
2022-12-27T05:58:12.788Z,101080.08
2022-12-27T06:00:41.487Z,101083.63
2022-12-27T06:03:10.433Z,101084.45
2022-12-27T06:05:39.263Z,101081.91
2022-12-27T06:08:09.890Z,101088.01
2022-12-27T06:10:38.874Z,101084.06
2022-12-27T06:13:07.743Z,101081.88
2022-12-27T06:15:37.651Z,101086.40
2022-12-27T06:18:06.915Z,101088.48
2022-12-27T06:20:35.961Z,101085.65
2022-12-27T06:23:05.203Z,101086.36
2022-12-27T06:25:34.390Z,101091.29
2022-12-27T06:28:03.168Z,101087.42
2022-12-27T06:30:36.117Z,101089.21
2022-12-27T06:33:05.293Z,101088.52
2022-12-27T06:35:34.092Z,101096.12
2022-12-27T06:38:02.837Z,101097.10
2022-12-27T06:40:31.615Z,101098.11
2022-12-27T06:43:00.635Z,101096.47
2022-12-27T06:45:29.337Z,101098.30
2022-12-27T06:47:58.075Z,101105.60
2022-12-27T06:50:27.039Z,101101.67
2022-12-27T06:52:56.438Z,101089.80
2022-12-27T06:55:25.286Z,101094.05
2022-12-27T06:57:54.051Z,101097.40
2022-12-27T07:00:22.949Z,101099.13
2022-12-27T07:02:51.767Z,101093.36
2022-12-27T07:05:20.645Z,101092.77
2022-12-27T07:07:49.430Z,101094.98
2022-12-27T07:10:18.702Z,101097.85
2022-12-27T07:12:47.488Z,101092.38
2022-12-27T07:15:16.305Z,101091.41
2022-12-27T07:17:45.019Z,101094.46
2022-12-27T07:20:13.960Z,101093.30
2022-12-27T07:22:42.819Z,101089.84
2022-12-27T07:25:11.649Z,101090.06
2022-12-27T07:27:40.406Z,101088.69
2022-12-27T07:30:10.255Z,101090.21
2022-12-27T07:32:39.097Z,101087.48
2022-12-27T07:35:08.310Z,101082.33
2022-12-27T07:37:38.758Z,101080.73
2022-12-27T07:40:08.518Z,101089.67
2022-12-27T07:42:37.287Z,101093.31
2022-12-27T07:45:06.997Z,101092.80
2022-12-27T07:47:35.840Z,101090.51
2022-12-27T07:50:06.565Z,101089.70
2022-12-27T07:52:35.583Z,101096.48
2022-12-27T07:55:04.929Z,101106.96
2022-12-27T07:57:33.769Z,101108.66
2022-12-27T08:00:03.893Z,101111.18
2022-12-27T08:02:43.709Z,101109.41
2022-12-27T08:05:14.226Z,101113.66
2022-12-27T08:07:43.417Z,101109.09
2022-12-27T08:10:13.353Z,101114.48
2022-12-27T08:12:42.544Z,101124.67
2022-12-27T08:15:12.840Z,101132.29
2022-12-27T08:17:41.665Z,101131.08
2022-12-27T08:20:14.905Z,101129.37
2022-12-27T08:22:43.597Z,101126.39
2022-12-27T08:25:12.394Z,101133.96
2022-12-27T08:27:41.562Z,101142.50
2022-12-27T08:30:11.284Z,101143.35
2022-12-27T08:32:40.361Z,101142.58
2022-12-27T08:35:41.925Z,101145.96
2022-12-27T08:38:01.888Z,101128.95
2022-12-27T08:40:31.092Z,101122.48
2022-12-27T08:43:00.617Z,101114.95
2022-12-27T08:45:29.698Z,101110.11
2022-12-27T08:48:02.846Z,101110.50
2022-12-27T08:50:32.332Z,101106.37
2022-12-27T08:53:03.221Z,101097.84
2022-12-27T08:55:33.291Z,101094.91
2022-12-27T08:58:13.834Z,101095.98
2022-12-27T09:00:44.468Z,101096.41
2022-12-27T09:03:13.361Z,101097.58
2022-12-27T09:05:42.468Z,101103.30
2022-12-27T09:08:12.081Z,101107.70
2022-12-27T09:10:40.896Z,101108.00
2022-12-27T09:13:09.845Z,101096.39
2022-12-27T09:15:39.650Z,101090.94
2022-12-27T09:18:08.623Z,101085.84
2022-12-27T09:20:38.260Z,101080.04
2022-12-27T09:23:07.101Z,101078.65
2022-12-27T09:25:36.266Z,101085.50
2022-12-27T09:28:07.233Z,101086.21
2022-12-27T09:30:38.585Z,101081.53
2022-12-27T09:33:09.683Z,101065.93
2022-12-27T09:35:40.619Z,101063.76
2022-12-27T09:38:11.508Z,101063.02
2022-12-27T09:40:40.523Z,101064.73
2022-12-27T09:43:22.325Z,101058.90
2022-12-27T09:45:57.182Z,101050.30
2022-12-27T09:48:39.037Z,101048.84
2022-12-27T09:51:29.611Z,101039.30
2022-12-27T09:54:31.469Z,101030.31
2022-12-27T09:57:19.432Z,101026.54
2022-12-27T09:59:58.799Z,101031.85
2022-12-27T10:02:29.667Z,101030.14
2022-12-27T10:08:20.681Z,101025.98
2022-12-27T10:11:38.854Z,101026.86
2022-12-27T10:14:45.712Z,101038.08
2022-12-27T10:18:10.995Z,101033.25
2022-12-27T10:21:16.634Z,101035.04
2022-12-27T10:23:54.849Z,101040.49
2022-12-27T10:26:25.118Z,101040.45
2022-12-27T10:29:14.258Z,101038.39
2022-12-27T10:31:45.284Z,101035.05
2022-12-27T10:34:17.319Z,101034.66
2022-12-27T10:36:46.254Z,101037.05
2022-12-27T10:39:20.313Z,101038.59
2022-12-27T10:42:32.177Z,101032.56
2022-12-27T10:45:37.145Z,101033.34
2022-12-27T10:48:36.397Z,101031.71
2022-12-27T10:51:15.680Z,101024.86
2022-12-27T10:53:47.466Z,101015.52
2022-12-27T10:56:39.177Z,101012.05
2022-12-27T10:59:13.348Z,101016.85
2022-12-27T11:01:42.646Z,101025.80
2022-12-27T11:04:21.949Z,101025.89
2022-12-27T11:07:12.383Z,101022.68
2022-12-27T11:09:50.707Z,101030.23
2022-12-27T11:12:26.061Z,101029.58
2022-12-27T11:15:11.218Z,101023.46
2022-12-27T11:18:00.714Z,101017.09
2022-12-27T11:20:32.716Z,101012.42
2022-12-27T11:23:24.744Z,101015.84
2022-12-27T11:26:03.170Z,101019.27
2022-12-27T11:28:40.307Z,101019.30
2022-12-27T11:31:16.807Z,101021.81
2022-12-27T11:33:53.268Z,101018.48
2022-12-27T11:36:34.590Z,101017.48
2022-12-27T11:39:05.154Z,101016.21
2022-12-27T11:41:55.986Z,101018.08
2022-12-27T11:44:32.898Z,101012.23
2022-12-27T11:48:08.126Z,101011.21
2022-12-27T11:51:01.796Z,101011.34
2022-12-27T11:54:07.012Z,101011.91
2022-12-27T11:56:41.997Z,101012.50
2022-12-27T11:59:58.060Z,101014.34
2022-12-27T12:02:52.638Z,101015.44
2022-12-27T12:05:47.701Z,101015.02
2022-12-27T12:08:54.529Z,101015.90
2022-12-27T12:11:42.612Z,101007.16
2022-12-27T12:15:07.950Z,101005.27
2022-12-27T12:18:04.098Z,101004.05
2022-12-27T12:20:40.915Z,101008.47
2022-12-27T12:23:21.902Z,101008.43
2022-12-27T12:26:16.740Z,101009.68
2022-12-27T12:29:29.805Z,101015.76
2022-12-27T12:32:25.341Z,101019.88
2022-12-27T12:35:16.300Z,101023.16
2022-12-27T12:37:53.838Z,101026.05
2022-12-27T12:40:33.124Z,101031.41
2022-12-27T12:43:46.178Z,101031.06
2022-12-27T12:46:56.307Z,101033.81
2022-12-27T12:49:54.819Z,101036.27
2022-12-27T12:52:35.554Z,101038.54
2022-12-27T12:55:40.247Z,101043.57
2022-12-27T12:58:43.188Z,101045.21
2022-12-27T13:01:50.645Z,101048.20
2022-12-27T13:04:41.074Z,101098.19
2022-12-27T13:07:12.492Z,101155.24
2022-12-27T13:09:53.219Z,101152.38
2022-12-27T13:12:24.677Z,101165.47
2022-12-27T13:15:38.950Z,101175.26
2022-12-27T13:18:43.689Z,101187.27
2022-12-27T13:21:59.731Z,101195.39
2022-12-27T13:25:08.619Z,101199.82
2022-12-27T13:28:23.952Z,101203.54
2022-12-27T13:31:28.357Z,101204.89
2022-12-27T13:34:37.439Z,101215.41
2022-12-27T13:37:25.769Z,101220.94
2022-12-27T13:40:24.814Z,101230.79
2022-12-27T13:43:25.845Z,101236.91
2022-12-27T13:46:57.537Z,101238.48
2022-12-27T13:50:06.634Z,101246.34
2022-12-27T13:52:47.339Z,101247.21
2022-12-27T13:55:35.085Z,101252.77
2022-12-27T13:58:28.142Z,101248.98
2022-12-27T14:01:23.752Z,101255.64
2022-12-27T14:04:24.301Z,101268.92
2022-12-27T14:07:34.555Z,101277.70
2022-12-27T14:10:22.704Z,101286.65
2022-12-27T14:13:08.974Z,101285.15
2022-12-27T14:16:08.814Z,101281.91
2022-12-27T14:19:03.400Z,101289.59
2022-12-27T14:22:28.231Z,101308.64
2022-12-27T14:25:43.147Z,101312.84
2022-12-27T14:28:42.068Z,101317.18
2022-12-27T14:31:54.586Z,101329.71
2022-12-27T14:35:07.038Z,101360.53
2022-12-27T14:38:21.385Z,101374.33
2022-12-27T14:41:19.248Z,101383.18
2022-12-27T14:44:25.194Z,101377.27
2022-12-27T14:47:54.984Z,101380.45
2022-12-27T14:50:45.889Z,101378.79
2022-12-27T14:54:08.143Z,101378.38
2022-12-27T14:56:57.586Z,101378.91
2022-12-27T14:59:50.336Z,101379.48
2022-12-27T15:02:58.624Z,101397.55
2022-12-27T15:06:01.428Z,101408.77
2022-12-27T15:08:50.851Z,101408.09
2022-12-27T15:11:48.119Z,101412.26
2022-12-27T15:15:04.589Z,101417.67
2022-12-27T15:18:26.701Z,101426.02
2022-12-27T15:21:42.138Z,101426.27
2022-12-27T15:24:36.933Z,101418.46
2022-12-27T15:27:20.088Z,101419.32
2022-12-27T15:30:04.355Z,101425.77
2022-12-27T15:32:36.583Z,101435.41
2022-12-27T15:35:45.189Z,101440.81
2022-12-27T15:38:35.769Z,101450.41
2022-12-27T15:41:37.349Z,101449.61
2022-12-27T15:44:55.938Z,101446.04
2022-12-27T15:48:21.084Z,101445.85
2022-12-27T15:51:43.662Z,101462.60
2022-12-27T15:54:53.642Z,101469.61
2022-12-27T15:57:52.022Z,101478.98
2022-12-27T16:00:24.611Z,101493.75
2022-12-27T16:02:59.860Z,101506.05
2022-12-27T16:05:45.655Z,101508.16
2022-12-27T16:08:32.453Z,101519.48
2022-12-27T16:11:05.617Z,101516.10
2022-12-27T16:13:42.786Z,101516.36
2022-12-27T16:16:38.856Z,101521.70
2022-12-27T16:19:45.811Z,101531.83
2022-12-27T16:22:40.184Z,101534.91
2022-12-27T16:25:42.626Z,101548.42
2022-12-27T16:28:28.103Z,101554.27
2022-12-27T16:31:02.876Z,101554.38
2022-12-27T16:33:42.581Z,101562.60
2022-12-27T16:36:47.828Z,101573.05
2022-12-27T16:39:47.409Z,101585.35
2022-12-27T16:42:22.184Z,101595.01
2022-12-27T16:45:43.749Z,101605.70
2022-12-27T16:49:02.200Z,101613.42
2022-12-27T16:52:17.402Z,101624.79
2022-12-27T16:54:58.149Z,101626.08
2022-12-27T16:57:26.961Z,101634.95
2022-12-27T17:00:58.337Z,101640.73
2022-12-27T17:03:36.103Z,101653.70
2022-12-27T17:06:31.706Z,101660.91
2022-12-27T17:09:10.609Z,101661.40
2022-12-27T17:11:51.843Z,101664.80
2022-12-27T17:14:44.359Z,101671.84
2022-12-27T17:17:21.276Z,101681.30
2022-12-27T17:20:06.668Z,101683.70
2022-12-27T17:22:39.591Z,101682.15
2022-12-27T17:25:18.304Z,101684.75
2022-12-27T17:28:24.046Z,101682.78
2022-12-27T17:31:07.453Z,101684.76
2022-12-27T17:34:28.453Z,101688.98
2022-12-27T17:37:28.290Z,101690.91
2022-12-27T17:41:02.482Z,101694.62
2022-12-27T17:44:21.019Z,101702.52
2022-12-27T17:46:57.760Z,101704.75
2022-12-27T17:49:31.308Z,101714.86
2022-12-27T17:52:20.557Z,101723.27
2022-12-27T17:55:07.840Z,101719.84
2022-12-27T17:57:54.879Z,101720.97
2022-12-27T18:01:02.634Z,101724.78
2022-12-27T18:03:45.050Z,101724.23
2022-12-27T18:06:20.117Z,101727.76
2022-12-27T18:08:51.131Z,101734.17
2022-12-27T18:11:27.800Z,101739.21
2022-12-27T18:14:00.772Z,101742.86
2022-12-27T18:16:40.786Z,101747.20
2022-12-27T18:19:19.941Z,101748.43
2022-12-27T18:22:03.539Z,101757.55
2022-12-27T18:24:34.012Z,101764.20
2022-12-27T18:27:21.209Z,101766.56
2022-12-27T18:29:50.432Z,101769.21
2022-12-27T18:32:19.683Z,101772.00
2022-12-27T18:35:00.798Z,101768.38
2022-12-27T18:37:29.698Z,101775.73
2022-12-27T18:40:02.739Z,101774.63
2022-12-27T18:42:43.025Z,101772.66
2022-12-27T18:45:33.579Z,101769.91
2022-12-27T18:48:09.371Z,101772.36
2022-12-27T18:50:48.274Z,101773.96
2022-12-27T18:53:38.683Z,101776.45
2022-12-27T18:56:16.620Z,101780.83
2022-12-27T18:59:16.953Z,101783.92
2022-12-27T19:01:48.333Z,101796.58
2022-12-27T19:04:20.763Z,101801.50
2022-12-27T19:07:09.929Z,101807.36
2022-12-27T19:09:48.668Z,101808.31
2022-12-27T19:12:35.171Z,101811.86
2022-12-27T19:15:14.734Z,101811.92
2022-12-27T19:17:47.980Z,101809.36
2022-12-27T19:20:29.215Z,101813.52
2022-12-27T19:23:02.069Z,101814.43
2022-12-27T19:25:37.064Z,101818.75
2022-12-27T19:28:26.511Z,101825.49
2022-12-27T19:31:18.624Z,101829.91
2022-12-27T19:33:56.148Z,101834.80
2022-12-27T19:36:40.213Z,101836.59
2022-12-27T19:39:29.784Z,101843.20
2022-12-27T19:42:01.960Z,101846.15
2022-12-27T19:44:32.726Z,101851.87
2022-12-27T19:47:01.627Z,101861.78
2022-12-27T19:49:42.554Z,101861.94
2022-12-27T19:52:21.626Z,101860.90
2022-12-27T19:54:57.025Z,101860.15
2022-12-27T19:57:25.740Z,101857.39
2022-12-27T19:59:55.189Z,101857.76
2022-12-27T20:02:24.875Z,101857.27
2022-12-27T20:04:54.546Z,101861.67
2022-12-27T20:07:25.711Z,101873.27
2022-12-27T20:09:54.975Z,101876.66
2022-12-27T20:12:24.387Z,101874.41
2022-12-27T20:14:53.789Z,101880.73
2022-12-27T20:17:22.628Z,101884.96
2022-12-27T20:19:51.988Z,101880.67
2022-12-27T20:22:20.874Z,101887.21
2022-12-27T20:24:49.662Z,101889.52
2022-12-27T20:27:23.976Z,101889.52
2022-12-27T20:29:52.868Z,101889.52
2022-12-27T20:32:21.722Z,101890.65
2022-12-27T20:34:50.483Z,101899.79
2022-12-27T20:37:24.273Z,101902.34
2022-12-27T20:39:53.538Z,101897.54
2022-12-27T20:42:24.627Z,101900.29
2022-12-27T20:44:53.689Z,101899.02
2022-12-27T20:47:22.755Z,101898.83
2022-12-27T20:49:51.996Z,101896.92
2022-12-27T20:52:24.409Z,101901.45
2022-12-27T20:54:57.704Z,101906.66
2022-12-27T20:57:26.739Z,101904.69
2022-12-27T20:59:55.500Z,101907.79
2022-12-27T21:02:24.391Z,101915.21
2022-12-27T21:04:53.838Z,101919.02
2022-12-27T21:07:22.726Z,101921.41
2022-12-27T21:09:51.561Z,101920.98
2022-12-27T21:12:20.300Z,101929.36
2022-12-27T21:14:50.295Z,101930.05
2022-12-27T21:17:18.985Z,101931.73
2022-12-27T21:19:47.702Z,101933.21
2022-12-27T21:22:16.715Z,101933.23
2022-12-27T21:24:45.390Z,101932.73
2022-12-27T21:27:14.192Z,101934.39
2022-12-27T21:29:43.029Z,101935.90
2022-12-27T21:32:11.778Z,101937.30
2022-12-27T21:34:41.473Z,101942.02
2022-12-27T21:37:13.434Z,101942.63
2022-12-27T21:39:42.513Z,101938.27
2022-12-27T21:42:12.572Z,101947.51
2022-12-27T21:44:41.328Z,101950.79
2022-12-27T21:47:10.103Z,101947.91
2022-12-27T21:49:40.657Z,101958.85
2022-12-27T21:52:09.547Z,101955.07
2022-12-27T21:54:38.421Z,101959.91
2022-12-27T21:57:07.157Z,101961.27
2022-12-27T21:59:35.876Z,101966.05
2022-12-27T22:02:04.695Z,101975.77
2022-12-27T22:04:33.560Z,101976.33
2022-12-27T22:07:02.423Z,101976.41
2022-12-27T22:09:31.227Z,101975.98
2022-12-27T22:12:00.110Z,101977.23
2022-12-27T22:14:33.273Z,101980.40
2022-12-27T22:17:06.024Z,101981.85
2022-12-27T22:19:34.741Z,101982.58
2022-12-27T22:22:03.470Z,101977.53
2022-12-27T22:24:32.423Z,101987.18
2022-12-27T22:27:01.222Z,101997.03
2022-12-27T22:29:34.968Z,102004.14
2022-12-27T22:32:04.385Z,102005.96
2022-12-27T22:34:33.125Z,102006.71
2022-12-27T22:37:01.993Z,102010.53
2022-12-27T22:39:31.142Z,102013.51
2022-12-27T22:41:59.917Z,102013.41
2022-12-27T22:44:29.266Z,102015.70
2022-12-27T22:47:26.338Z,102017.48
2022-12-27T22:49:49.673Z,102022.54
2022-12-27T22:52:18.424Z,102024.84
2022-12-27T22:55:04.199Z,102024.38
2022-12-27T22:57:35.078Z,102027.66
2022-12-27T23:00:07.047Z,102028.05
2022-12-27T23:02:37.109Z,102033.75
2022-12-27T23:05:06.921Z,102033.25
2022-12-27T23:08:04.644Z,102033.82
2022-12-27T23:10:24.512Z,102033.15
2022-12-27T23:12:53.416Z,102033.34
2022-12-27T23:15:22.228Z,102033.52
2022-12-27T23:17:52.542Z,102033.23
2022-12-27T23:20:21.331Z,102034.63
2022-12-27T23:22:50.090Z,102037.89
2022-12-27T23:25:18.861Z,102041.25
2022-12-27T23:27:47.597Z,102040.14
2022-12-27T23:30:16.726Z,102044.13
2022-12-27T23:32:45.439Z,102046.61
2022-12-27T23:35:14.468Z,102051.00
2022-12-27T23:37:43.212Z,102051.10
2022-12-27T23:40:12.672Z,102056.52
2022-12-27T23:42:41.384Z,102054.76
2022-12-27T23:45:10.843Z,102055.15
2022-12-27T23:47:39.674Z,102048.90
2022-12-27T23:50:14.533Z,102048.40
2022-12-27T23:52:47.848Z,102048.52
2022-12-27T23:55:16.840Z,102048.10
2022-12-27T23:57:45.776Z,102045.98
